Latest Weather Observations for Narrabri

IDN60801

Issued at 8:04 am EDT Thursday 18 December 2014 (issued every 30 minutes, with the page automatically refreshed every 10 minutes)

About weather observations | Map of weather stations | Latest weather observations for NSW | Other Formats
Station Details ID: 054038 Name: NARRABRI AIRPORT AWS Lat: -30.32 Lon: 149.83 Height: 229.02 m
Data from the previous 72 hours. | See also: Recent months at Narrabri
Date/Time
EDT
Temp
°C
App
Temp
°C
Dew
Point
Rel
Hum
%
Delta-T
°C
Wind Press
QNH
hPa
Press
MSL
hPa
Rain
since 9 am
mm
Dir
 
Spd
km/h
Gust
km/h
Spd
kts
Gust
kts
18/08:00am 28.5 23.2 15.4 45 8.1 NNE 37 50 20 27 1007.3 1006.0 0.0
18/07:30am 27.6 23.3 15.9 49 7.3 NNE 33 44 18 24 1007.4 1006.1 0.0
18/07:00am 27.0 22.1 15.4 49 7.1 NNE 35 44 19 24 1007.2 1005.9 0.0
18/06:30am 26.7 22.1 15.1 49 7.1 NE 33 43 18 23 1006.6 1005.4 0.0
18/06:00am 26.8 23.5 13.9 45 7.8 NNE 24 30 13 16 1006.4 1005.2 0.0
18/05:43am 26.5 26.0 15.8 51 6.6 NE 13 32 7 17 1006.1 1004.9 0.0
18/05:30am 21.2 20.9 11.5 54 5.4 NNE 4 7 2 4 1006.3 1005.1 0.0
18/05:00am 21.1 21.3 12.0 56 5.2 SSE 2 9 1 5 1005.6 1004.3 0.0
18/04:30am 22.4 21.4 12.4 53 5.7 SSE 9 11 5 6 1005.5 1004.2 0.0
18/04:00am 23.3 21.9 11.0 46 6.9 WNW 9 13 5 7 1005.4 1004.1 0.0
18/03:30am 25.6 24.9 11.4 41 8.1 S 6 11 3 6 1004.6 1003.3 0.0
18/03:00am 24.8 23.9 10.7 41 8.0 SE 6 13 3 7 1004.6 1003.3 0.0
18/02:30am 24.9 23.7 10.4 40 8.1 ESE 7 9 4 5 1004.6 1003.3 0.0
18/02:00am 24.3 22.6 9.8 40 8.1 NE 9 11 5 6 1004.8 1003.5 0.0
18/01:30am 26.1 24.5 10.3 37 8.9 SSE 9 13 5 7 1004.8 1003.5 0.0
18/01:00am 27.3 24.8 9.6 33 9.9 SE 13 17 7 9 1004.7 1003.4 0.0
18/12:30am 28.4 26.0 10.1 32 10.4 SSE 13 20 7 11 1004.9 1003.6 0.0
18/12:00am 28.6 25.0 9.8 31 10.7 ENE 19 22 10 12 1005.3 1004.0 0.0
 
Date/Time
EDT
Temp
°C
App
Temp
°C
Dew
Point
Rel
Hum
%
Delta-T
°C
Wind Press
QNH
hPa
Press
MSL
hPa
Rain
since 9 am
mm
Dir
 
Spd
km/h
Gust
km/h
Spd
kts
Gust
kts
17/11:30pm 29.9 26.1 9.9 29 11.4 NE 20 24 11 13 1006.0 1004.8 0.0
17/11:00pm 30.5 26.0 9.9 28 11.8 NE 24 33 13 18 1006.7 1005.5 0.0
17/10:30pm 30.6 27.0 10.0 28 11.8 WNW 19 26 10 14 1006.5 1005.3 0.0
17/10:00pm 31.2 25.0 10.0 27 12.2 WNW 33 44 18 24 1006.3 1005.1 0.0
17/09:30pm 31.1 23.7 9.9 27 12.1 NW 39 52 21 28 1005.9 1004.7 0.0
17/09:15pm 30.7 26.9 9.0 26 12.3 N 19 52 10 28 1005.6 1004.3 0.0
17/09:14pm 29.7 25.9 7.6 25 12.1 N 17 39 9 21 1005.7 1004.4 0.0
17/09:00pm 29.2 27.4 5.3 22 12.6 NE 4 7 2 4 1004.1 1002.8 0.0
17/08:30pm 32.1 30.0 4.0 17 14.8 SSW 4 6 2 3 1004.0 1002.7 0.0
17/08:00pm 34.1 31.0 3.8 15 16.0 SW 9 11 5 6 1003.6 1002.3 0.0
17/07:30pm 35.4 31.0 2.8 13 17.0 SW 15 20 8 11 1003.2 1001.9 0.0
17/07:00pm 37.8 32.4 1.0 10 19.0 WSW 19 28 10 15 1002.7 1001.4 0.0
17/06:30pm 38.3 31.7 -0.1 9 19.6 WSW 24 33 13 18 1002.2 1001.0 0.0
17/06:00pm 39.3 33.2 0.6 9 20.1 WSW 22 33 12 18 1002.0 1000.8 0.0
17/05:30pm 39.1 33.4 0.5 9 19.9 WSW 20 43 11 23 1002.1 1000.9 0.0
17/05:00pm 39.4 33.8 3.5 11 19.5 W 22 41 12 22 1002.2 1001.0 0.0
17/04:35pm 39.4 32.9 4.7 12 19.1 W 28 50 15 27 1002.4 1001.2 0.0
17/04:30pm 39.3 34.5 5.8 13 18.7 W 20 41 11 22 1002.4 1001.2 0.0
17/04:00pm 37.9 33.1 4.7 13 18.2 W 19 32 10 17 1002.9 1001.6 0.0
17/03:30pm 37.8 31.3 4.7 13 18.1 W 28 44 15 24 1003.4 1002.1 0.0
17/03:00pm 39.3 32.4 4.7 12 19.1 WNW 30 46 16 25 1003.6 1002.3 0.0
17/02:33pm 39.4 32.9 4.7 12 19.1 W 28 50 15 27 1003.8 1002.5 0.0
17/02:30pm 39.7 33.6 5.0 12 19.2 W 26 50 14 27 1003.6 1002.3 0.0
17/02:00pm 37.9 30.8 3.6 12 18.5 WNW 30 43 16 23 1004.0 1002.7 0.0
17/01:30pm 39.0 32.7 5.6 13 18.6 NW 28 44 15 24 1004.3 1003.0 0.0
17/01:00pm 38.9 33.2 6.6 14 18.3 WNW 26 37 14 20 1004.8 1003.5 0.0
17/12:30pm 37.6 32.7 8.4 17 16.8 NW 24 35 13 19 1005.1 1003.8 0.0
17/12:00pm 37.0 32.9 8.8 18 16.4 WNW 20 32 11 17 1005.4 1004.1 0.0
17/11:30am 36.2 32.0 9.7 20 15.5 NW 22 33 12 18 1005.6 1004.3 0.0
17/11:00am 34.4 30.3 11.5 25 13.7 N 24 35 13 19 1005.8 1004.5 0.0
17/10:30am 33.9 30.3 11.7 26 13.2 N 22 30 12 16 1006.0 1004.8 0.0
17/10:00am 32.7 29.1 11.8 28 12.4 N 22 33 12 18 1005.9 1004.7 0.0
17/09:30am 31.8 28.3 12.1 30 11.7 N 22 30 12 16 1006.0 1004.8 0.0
17/09:00am 30.6 26.7 12.0 32 11.0 N 24 32 13 17 1006.2 1005.0 0.8
17/08:30am 30.2 26.6 13.0 34 10.3 N 24 32 13 17 1006.2 1005.0 0.8
17/08:00am 29.3 26.5 13.1 37 9.7 N 20 30 11 16 1006.1 1004.9 0.8
17/07:30am 28.1 25.5 13.2 39 8.9 N 19 26 10 14 1006.1 1004.9 0.8
17/07:00am 26.8 23.2 13.2 43 8.1 NNE 24 30 13 16 1005.1 1003.8 0.8
17/06:30am 25.3 22.4 12.9 46 7.3 NNE 20 26 11 14 1004.7 1003.4 0.8
17/06:00am 25.3 22.0 12.9 46 7.3 NNE 22 32 12 17 1004.4 1003.1 0.8
17/05:30am 24.9 22.0 12.8 47 7.1 NNE 20 24 11 13 1004.0 1002.7 0.8
17/05:00am 25.1 22.1 12.7 46 7.3 NNE 20 28 11 15 1003.6 1002.3 0.8
17/04:30am 24.8 21.8 12.4 46 7.2 NNE 20 26 11 14 1003.2 1001.9 0.8
17/04:00am 24.4 22.2 12.0 46 7.2 NNE 15 19 8 10 1003.1 1001.8 0.8
17/03:30am 25.2 22.6 12.1 44 7.6 NNE 17 20 9 11 1003.1 1001.8 0.8
17/03:00am 25.3 23.1 12.2 44 7.6 NNE 15 19 8 10 1003.3 1002.0 0.8
17/02:30am 24.9 22.8 12.5 46 7.2 NNE 15 20 8 11 1003.4 1002.1 0.8
17/02:00am 25.1 23.5 12.7 46 7.3 ENE 13 15 7 8 1003.4 1002.1 0.8
17/01:30am 25.9 22.9 12.4 43 7.9 NNE 20 28 11 15 1003.4 1002.1 0.8
17/01:00am 25.7 23.0 12.9 45 7.5 NNE 19 24 10 13 1003.6 1002.3 0.8
17/12:30am 25.9 23.1 13.1 45 7.5 NNE 20 24 11 13 1003.8 1002.5 0.8
17/12:00am 26.2 23.3 13.0 44 7.8 NNE 20 24 11 13 1004.1 1002.8 0.8
 
Date/Time
EDT
Temp
°C
App
Temp
°C
Dew
Point
Rel
Hum
%
Delta-T
°C
Wind Press
QNH
hPa
Press
MSL
hPa
Rain
since 9 am
mm
Dir
 
Spd
km/h
Gust
km/h
Spd
kts
Gust
kts
16/11:30pm 27.1 24.4 13.4 42 8.2 NNE 20 30 11 16 1004.5 1003.2 0.8
16/11:00pm 27.0 23.9 13.4 43 8.1 NNE 22 28 12 15 1004.7 1003.4 0.8
16/10:30pm 26.3 25.0 13.8 46 7.5 NE 13 15 7 8 1005.2 1003.9 0.8
16/10:00pm 26.9 25.4 14.3 46 7.6 ENE 15 19 8 10 1005.0 1003.7 0.8
16/09:30pm 26.1 26.5 16.4 55 6.0 E 9 11 5 6 1005.3 1004.0 0.8
16/09:00pm 26.7 26.5 14.8 48 7.3 SE 9 13 5 7 1005.3 1004.0 0.8
16/08:30pm 27.4 27.1 14.4 45 7.9 SE 9 13 5 7 1005.1 1003.8 0.8
16/08:00pm 27.7 27.7 14.3 43 8.1 NNE 7 15 4 8 1004.6 1003.3 0.8
16/07:30pm 27.5 25.1 15.5 48 7.4 N 22 28 12 15 1003.6 1002.3 0.8
16/07:00pm 27.1 27.4 16.1 51 6.9 ENE 9 19 5 10 1003.6 1002.3 0.8
16/06:30pm 26.7 24.9 16.0 52 6.6 NE 20 28 11 15 1002.7 1001.4 0.8
16/06:00pm 26.5 24.7 17.8 58 5.6 ENE 24 30 13 16 1001.5 1000.2 0.8
16/05:30pm 26.7 25.9 18.0 59 5.6 NNE 19 22 10 12 1002.8 1001.5 0.8
16/05:00pm 23.7 24.8 19.6 78 2.7 WNW 13 32 7 17 1004.0 1002.7 0.8
16/04:52pm 23.6 19.2 17.6 69 3.8 WSW 37 61 20 33 1004.5 1003.2 0.8
16/04:48pm 23.3 16.8 17.5 70 3.6 SW 48 76 26 41 1004.6 1003.3 0.8
16/04:39pm 25.8 19.9 13.6 47 7.2 SSW 37 82 20 44 1003.3 1002.0 0.0
16/04:36pm 32.0 27.7 9.5 25 12.9 SE 22 82 12 44 1002.9 1001.6 0.0
16/04:35pm 33.1 29.5 8.5 22 13.9 E 17 82 9 44 1002.4 1001.2 0.0
16/04:34pm 34.9 31.6 6.2 17 15.8 E 13 46 7 25 1002.4 1001.2 0.0
16/04:30pm 35.0 32.4 6.3 17 15.8 NE 9 15 5 8 1000.8 999.5 0.0
16/04:00pm 36.2 33.7 6.4 16 16.6 NNE 9 13 5 7 1001.5 1000.2 0.0
16/03:30pm 34.9 31.0 5.4 16 16.0 WSW 15 28 8 15 1002.6 1001.3 0.0
16/03:00pm 36.8 29.8 3.9 13 17.7 NNW 30 50 16 27 1002.0 1000.8 0.0
16/02:57pm 37.0 29.4 2.9 12 18.0 N 32 50 17 27 1002.0 1000.8 0.0
16/02:30pm 36.9 29.6 7.0 16 16.8 N 35 44 19 24 1002.7 1001.4 0.0
16/02:17pm 37.4 30.7 7.3 16 17.0 N 32 50 17 27 1003.1 1001.8 0.0
16/02:00pm 36.5 29.3 7.5 17 16.5 N 35 50 19 27 1003.3 1002.0 0.0
16/01:37pm 37.1 30.8 8.8 18 16.4 N 32 50 17 27 1004.1 1002.8 0.0
16/01:30pm 35.8 29.2 7.8 18 15.9 N 32 44 17 24 1004.3 1003.0 0.0
16/01:00pm 35.3 28.6 8.2 19 15.5 N 33 48 18 26 1004.9 1003.6 0.0
16/12:30pm 34.5 27.7 7.5 19 15.1 N 33 52 18 28 1005.5 1004.2 0.0
16/12:00pm 33.8 26.8 8.4 21 14.4 N 35 48 19 26 1005.9 1004.7 0.0
16/11:30am 33.1 26.8 9.8 24 13.4 N 33 44 18 24 1006.2 1005.0 0.0
16/11:00am 33.0 26.3 9.7 24 13.5 N 35 46 19 25 1006.7 1005.5 0.0
16/10:30am 32.0 26.0 10.7 27 12.4 N 33 44 18 24 1007.2 1005.9 0.0
16/10:00am 31.2 25.9 11.1 29 11.8 N 30 43 16 23 1007.6 1006.3 0.0
16/09:30am 29.1 24.3 11.6 33 10.2 NNE 28 37 15 20 1008.2 1006.9 0.0
16/09:00am 27.8 22.2 11.4 36 9.5 NNE 32 39 17 21 1008.3 1007.0 0.0
16/08:30am 26.4 20.8 12.1 41 8.3 NNE 33 46 18 25 1008.4 1007.1 0.0
16/08:00am 26.8 20.8 12.1 40 8.6 N 35 44 19 24 1008.6 1007.3 0.0
16/07:30am 26.3 21.1 11.6 40 8.5 NNE 30 41 16 22 1007.9 1006.6 0.0
16/07:00am 25.1 21.5 12.0 44 7.6 NNE 22 30 12 16 1007.7 1006.4 0.0
16/06:48am 22.3 20.8 12.0 52 5.9 NNE 11 20 6 11 1007.7 1006.4 0.0
16/06:30am 17.0 16.4 7.6 54 4.8 CALM 0 2 0 1 1007.7 1006.4 0.0
16/06:00am 17.0 16.2 6.5 50 5.2 CALM 0 6 0 3 1007.0 1005.8 0.0
16/05:30am 16.4 15.5 6.0 50 5.1 CALM 0 0 0 0 1007.0 1005.8 0.0
16/05:00am 16.3 15.4 5.9 50 5.1 CALM 0 4 0 2 1006.9 1005.7 0.0
16/04:30am 17.0 15.7 5.9 48 5.5 SSW 2 6 1 3 1006.8 1005.6 0.0
16/04:00am 18.2 15.8 5.4 43 6.3 S 7 9 4 5 1006.5 1005.3 0.0
16/03:30am 17.6 15.4 5.2 44 6.0 NNW 6 6 3 3 1006.6 1005.4 0.0
16/03:00am 17.6 15.8 5.2 44 6.1 SE 4 19 2 10 1006.8 1005.6 0.0
16/02:30am 18.7 17.6 5.2 41 6.6 CALM 0 0 0 0 1007.3 1006.0 0.0
16/02:00am 18.4 17.3 5.3 42 6.4 CALM 0 0 0 0 1007.5 1006.2 0.0
16/01:30am 18.5 17.1 5.4 42 6.4 E 2 7 1 4 1008.0 1006.7 0.0
16/01:00am 19.2 17.8 5.3 40 6.9 E 2 7 1 4 1008.4 1007.1 0.0
16/12:30am 20.8 19.6 4.4 34 8.0 CALM 0 0 0 0 1008.7 1007.4 0.0
16/12:00am 20.6 18.2 4.2 34 8.0 ENE 6 7 3 4 1008.7 1007.4 0.0
 
Date/Time
EDT
Temp
°C
App
Temp
°C
Dew
Point
Rel
Hum
%
Delta-T
°C
Wind Press
QNH
hPa
Press
MSL
hPa
Rain
since 9 am
mm
Dir
 
Spd
km/h
Gust
km/h
Spd
kts
Gust
kts
15/11:30pm 22.8 19.8 4.3 30 9.2 S 9 11 5 6 1008.8 1007.5 0.0
15/11:00pm 22.5 20.0 3.6 29 9.3 N 6 6 3 3 1008.9 1007.6 0.0
15/10:30pm 23.7 20.5 3.1 26 10.1 ESE 9 11 5 6 1009.0 1007.7 0.0
15/10:00pm 24.8 21.3 3.5 25 10.6 ENE 11 13 6 7 1008.7 1007.4 0.0
15/09:30pm 28.8 24.7 2.1 18 13.3 ESE 13 20 7 11 1008.4 1007.1 0.0
15/09:00pm 29.6 25.6 2.8 18 13.6 ESE 13 19 7 10 1008.1 1006.8 0.0
15/08:30pm 29.7 26.5 2.9 18 13.6 ESE 9 13 5 7 1008.1 1006.8 0.0
15/08:00pm 31.0 26.9 2.3 16 14.5 ESE 13 17 7 9 1007.9 1006.6 0.0
15/07:30pm 32.4 28.0 2.5 15 15.3 ESE 15 22 8 12 1007.5 1006.2 0.0
15/07:00pm 33.4 28.0 1.3 13 16.2 SE 19 28 10 15 1007.3 1006.0 0.0
15/06:30pm 34.0 29.1 1.7 13 16.5 ESE 17 26 9 14 1007.0 1005.8 0.0
15/06:00pm 34.8 29.6 2.3 13 16.8 SE 19 35 10 19 1006.7 1005.5 0.0
15/05:30pm 34.5 29.0 2.1 13 16.7 SE 20 30 11 16 1006.7 1005.5 0.0
15/05:14pm 35.5 29.8 2.9 13 17.1 SSW 22 43 12 23 1006.6 1005.4 0.0
15/05:00pm 35.1 29.7 2.6 13 17.0 S 20 30 11 16 1006.6 1005.4 0.0
15/04:30pm 33.9 28.2 2.7 14 16.1 S 22 33 12 18 1007.0 1005.8 0.0
15/04:00pm 33.7 28.3 2.5 14 16.1 SSW 20 28 11 15 1007.3 1006.0 0.0
15/03:30pm 34.7 29.3 2.3 13 16.7 S 20 30 11 16 1007.6 1006.3 0.0
15/03:00pm 34.1 29.2 1.8 13 16.5 SSE 17 33 9 18 1007.8 1006.5 0.0
15/02:30pm 33.3 30.3 5.8 18 14.9 NW 11 19 6 10 1008.3 1007.0 0.0
15/02:00pm 34.0 30.5 7.1 19 15.0 SSW 15 26 8 14 1008.7 1007.4 0.0
15/01:30pm 32.6 28.6 6.7 20 14.2 SSW 17 32 9 17 1009.1 1007.8 0.0
15/01:00pm 32.4 30.6 8.0 22 13.7 SW 7 13 4 7 1009.4 1008.1 0.0
15/12:30pm 31.8 29.3 8.1 23 13.2 W 11 17 6 9 1009.8 1008.6 0.0
15/12:00pm 31.4 28.0 9.0 25 12.7 WSW 17 26 9 14 1010.1 1008.9 0.0
15/11:30am 30.6 28.0 9.5 27 12.0 NNW 13 19 7 10 1010.4 1009.2 0.0
15/11:00am 29.3 26.2 8.9 28 11.4 N 15 22 8 12 1010.6 1009.4 0.0
15/10:30am 29.7 27.0 11.7 33 10.5 NNE 17 22 9 12 1010.6 1009.4 0.0
15/10:00am 27.9 23.4 10.1 33 10.1 NNW 24 32 13 17 1010.8 1009.6 0.0
15/09:30am 27.1 23.7 11.2 37 9.1 N 20 28 11 15 1011.0 1009.8 0.0
15/09:00am 26.3 22.6 12.7 43 8.0 N 24 33 13 18 1010.9 1009.7 0.0
15/08:30am 25.3 21.5 12.5 45 7.5 N 24 32 13 17 1011.0 1009.8 0.0

Other Formats:

Comma delimited format used in spreadsheet applications
http://www.bom.gov.au/fwo/IDN60801/IDN60801.95734.axf

JavaScript Object Notation format (JSON) in row-major order
http://www.bom.gov.au/fwo/IDN60801/IDN60801.95734.json